sensor_id;sensor_type;location;lat;lon;timestamp;temperature;humidity
18365;DHT22;9309;52.126;11.616;2024-03-02T00:01:31;5.70;96.70
18365;DHT22;9309;52.126;11.616;2024-03-02T00:03:59;5.60;96.70
18365;DHT22;9309;52.126;11.616;2024-03-02T00:06:26;5.70;96.70
18365;DHT22;9309;52.126;11.616;2024-03-02T00:08:58;5.70;96.50
18365;DHT22;9309;52.126;11.616;2024-03-02T00:11:24;5.60;96.70
18365;DHT22;9309;52.126;11.616;2024-03-02T00:13:53;5.60;96.80
18365;DHT22;9309;52.126;11.616;2024-03-02T00:16:20;5.60;96.80
18365;DHT22;9309;52.126;11.616;2024-03-02T00:18:46;5.60;96.80
18365;DHT22;9309;52.126;11.616;2024-03-02T00:21:14;5.60;97.00
18365;DHT22;9309;52.126;11.616;2024-03-02T00:23:43;5.60;97.10
18365;DHT22;9309;52.126;11.616;2024-03-02T00:26:11;5.60;97.00
18365;DHT22;9309;52.126;11.616;2024-03-02T00:28:39;5.60;97.00
18365;DHT22;9309;52.126;11.616;2024-03-02T00:31:07;5.60;96.90
18365;DHT22;9309;52.126;11.616;2024-03-02T00:33:36;5.60;96.40
18365;DHT22;9309;52.126;11.616;2024-03-02T00:36:04;5.60;96.20
18365;DHT22;9309;52.126;11.616;2024-03-02T00:38:34;5.80;95.60
18365;DHT22;9309;52.126;11.616;2024-03-02T00:41:04;6.00;94.90
18365;DHT22;9309;52.126;11.616;2024-03-02T00:43:42;6.00;94.30
18365;DHT22;9309;52.126;11.616;2024-03-02T00:46:13;6.10;93.10
18365;DHT22;9309;52.126;11.616;2024-03-02T00:48:48;6.00;93.40
18365;DHT22;9309;52.126;11.616;2024-03-02T00:51:17;6.00;93.80
18365;DHT22;9309;52.126;11.616;2024-03-02T00:53:45;5.80;94.50
18365;DHT22;9309;52.126;11.616;2024-03-02T00:56:12;5.70;95.30
18365;DHT22;9309;52.126;11.616;2024-03-02T00:58:39;5.60;96.00
18365;DHT22;9309;52.126;11.616;2024-03-02T01:01:06;5.50;96.60
18365;DHT22;9309;52.126;11.616;2024-03-02T01:03:33;5.50;96.60
18365;DHT22;9309;52.126;11.616;2024-03-02T01:06:00;5.50;96.80
18365;DHT22;9309;52.126;11.616;2024-03-02T01:08:26;5.50;97.00
18365;DHT22;9309;52.126;11.616;2024-03-02T01:10:54;5.50;97.10
18365;DHT22;9309;52.126;11.616;2024-03-02T01:13:21;5.50;97.10
18365;DHT22;9309;52.126;11.616;2024-03-02T01:15:48;5.50;97.20
18365;DHT22;9309;52.126;11.616;2024-03-02T01:18:14;5.50;97.20
18365;DHT22;9309;52.126;11.616;2024-03-02T01:20:41;5.60;96.80
18365;DHT22;9309;52.126;11.616;2024-03-02T01:23:07;5.70;96.60
18365;DHT22;9309;52.126;11.616;2024-03-02T01:25:34;6.00;94.80
18365;DHT22;9309;52.126;11.616;2024-03-02T01:28:02;6.00;93.70
18365;DHT22;9309;52.126;11.616;2024-03-02T01:30:29;5.90;94.20
18365;DHT22;9309;52.126;11.616;2024-03-02T01:32:56;6.00;94.70
18365;DHT22;9309;52.126;11.616;2024-03-02T01:35:24;6.00;93.90
18365;DHT22;9309;52.126;11.616;2024-03-02T01:37:52;5.80;94.50
18365;DHT22;9309;52.126;11.616;2024-03-02T01:40:18;5.80;94.70
18365;DHT22;9309;52.126;11.616;2024-03-02T01:42:45;5.90;95.00
18365;DHT22;9309;52.126;11.616;2024-03-02T01:45:13;5.90;94.30
18365;DHT22;9309;52.126;11.616;2024-03-02T01:47:40;5.80;94.90
18365;DHT22;9309;52.126;11.616;2024-03-02T01:50:07;5.70;95.40
18365;DHT22;9309;52.126;11.616;2024-03-02T01:52:34;5.70;95.60
18365;DHT22;9309;52.126;11.616;2024-03-02T01:55:00;5.60;95.70
18365;DHT22;9309;52.126;11.616;2024-03-02T01:57:27;5.60;96.00
18365;DHT22;9309;52.126;11.616;2024-03-02T01:59:53;5.70;95.70
18365;DHT22;9309;52.126;11.616;2024-03-02T02:02:21;5.70;96.00
18365;DHT22;9309;52.126;11.616;2024-03-02T02:04:48;5.90;95.00
18365;DHT22;9309;52.126;11.616;2024-03-02T02:07:14;5.90;94.10
18365;DHT22;9309;52.126;11.616;2024-03-02T02:09:41;5.70;95.00
18365;DHT22;9309;52.126;11.616;2024-03-02T02:12:08;5.70;95.40
18365;DHT22;9309;52.126;11.616;2024-03-02T02:14:34;5.90;95.40
18365;DHT22;9309;52.126;11.616;2024-03-02T02:17:01;6.00;94.10
18365;DHT22;9309;52.126;11.616;2024-03-02T02:19:29;5.80;94.40
18365;DHT22;9309;52.126;11.616;2024-03-02T02:21:56;5.70;94.90
18365;DHT22;9309;52.126;11.616;2024-03-02T02:24:23;5.70;95.10
18365;DHT22;9309;52.126;11.616;2024-03-02T02:26:49;5.70;95.30
18365;DHT22;9309;52.126;11.616;2024-03-02T02:29:16;5.70;95.50
18365;DHT22;9309;52.126;11.616;2024-03-02T02:31:42;5.70;95.50
18365;DHT22;9309;52.126;11.616;2024-03-02T02:34:09;5.60;95.60
18365;DHT22;9309;52.126;11.616;2024-03-02T02:36:36;5.70;95.60
18365;DHT22;9309;52.126;11.616;2024-03-02T02:39:05;5.70;95.40
18365;DHT22;9309;52.126;11.616;2024-03-02T02:41:32;5.70;95.50
18365;DHT22;9309;52.126;11.616;2024-03-02T02:43:59;5.70;95.40
18365;DHT22;9309;52.126;11.616;2024-03-02T02:46:25;5.80;95.40
18365;DHT22;9309;52.126;11.616;2024-03-02T02:48:52;5.70;95.40
18365;DHT22;9309;52.126;11.616;2024-03-02T02:51:19;5.70;95.50
18365;DHT22;9309;52.126;11.616;2024-03-02T02:53:45;5.70;95.70
18365;DHT22;9309;52.126;11.616;2024-03-02T02:56:13;5.80;95.30
18365;DHT22;9309;52.126;11.616;2024-03-02T02:58:40;5.80;95.00
18365;DHT22;9309;52.126;11.616;2024-03-02T03:01:07;5.80;95.00
18365;DHT22;9309;52.126;11.616;2024-03-02T03:03:33;5.70;95.10
18365;DHT22;9309;52.126;11.616;2024-03-02T03:06:00;5.60;95.50
18365;DHT22;9309;52.126;11.616;2024-03-02T03:08:27;5.60;95.50
18365;DHT22;9309;52.126;11.616;2024-03-02T03:10:54;5.70;95.80
18365;DHT22;9309;52.126;11.616;2024-03-02T03:13:21;6.10;94.80
18365;DHT22;9309;52.126;11.616;2024-03-02T03:15:48;6.30;92.30
18365;DHT22;9309;52.126;11.616;2024-03-02T03:18:14;6.10;93.00
18365;DHT22;9309;52.126;11.616;2024-03-02T03:20:41;6.00;93.50
18365;DHT22;9309;52.126;11.616;2024-03-02T03:23:08;5.90;94.40
18365;DHT22;9309;52.126;11.616;2024-03-02T03:25:34;5.90;94.80
18365;DHT22;9309;52.126;11.616;2024-03-02T03:28:01;6.10;94.30
18365;DHT22;9309;52.126;11.616;2024-03-02T03:30:29;6.40;92.70
18365;DHT22;9309;52.126;11.616;2024-03-02T03:32:56;6.40;91.90
18365;DHT22;9309;52.126;11.616;2024-03-02T03:35:22;6.20;92.50
18365;DHT22;9309;52.126;11.616;2024-03-02T03:37:49;6.10;93.20
18365;DHT22;9309;52.126;11.616;2024-03-02T03:40:15;6.20;93.60
18365;DHT22;9309;52.126;11.616;2024-03-02T03:42:43;6.30;92.20
18365;DHT22;9309;52.126;11.616;2024-03-02T03:45:10;6.50;92.50
18365;DHT22;9309;52.126;11.616;2024-03-02T03:47:38;6.60;91.30
18365;DHT22;9309;52.126;11.616;2024-03-02T03:50:05;6.50;90.90
18365;DHT22;9309;52.126;11.616;2024-03-02T03:52:32;6.30;92.20
18365;DHT22;9309;52.126;11.616;2024-03-02T03:54:59;6.10;92.70
18365;DHT22;9309;52.126;11.616;2024-03-02T03:57:25;6.00;93.30
18365;DHT22;9309;52.126;11.616;2024-03-02T03:59:52;6.10;93.50
18365;DHT22;9309;52.126;11.616;2024-03-02T04:02:19;6.10;93.40
18365;DHT22;9309;52.126;11.616;2024-03-02T04:04:46;5.90;94.00
18365;DHT22;9309;52.126;11.616;2024-03-02T04:07:13;6.00;94.40
18365;DHT22;9309;52.126;11.616;2024-03-02T04:09:40;6.20;93.20
18365;DHT22;9309;52.126;11.616;2024-03-02T04:12:06;6.20;92.50
18365;DHT22;9309;52.126;11.616;2024-03-02T04:14:33;6.10;92.60
18365;DHT22;9309;52.126;11.616;2024-03-02T04:16:59;6.10;93.00
18365;DHT22;9309;52.126;11.616;2024-03-02T04:19:26;5.90;93.60
18365;DHT22;9309;52.126;11.616;2024-03-02T04:21:54;5.90;94.00
18365;DHT22;9309;52.126;11.616;2024-03-02T04:24:20;5.90;94.20
18365;DHT22;9309;52.126;11.616;2024-03-02T04:26:47;6.10;93.80
18365;DHT22;9309;52.126;11.616;2024-03-02T04:29:13;6.30;92.20
18365;DHT22;9309;52.126;11.616;2024-03-02T04:31:40;6.30;91.30
18365;DHT22;9309;52.126;11.616;2024-03-02T04:34:06;6.10;92.00
18365;DHT22;9309;52.126;11.616;2024-03-02T04:36:33;6.20;92.00
18365;DHT22;9309;52.126;11.616;2024-03-02T04:39:01;6.20;91.90
18365;DHT22;9309;52.126;11.616;2024-03-02T04:41:27;6.30;91.50
18365;DHT22;9309;52.126;11.616;2024-03-02T04:43:54;6.50;90.90
18365;DHT22;9309;52.126;11.616;2024-03-02T04:46:21;6.50;90.60
18365;DHT22;9309;52.126;11.616;2024-03-02T04:48:47;6.50;90.50
18365;DHT22;9309;52.126;11.616;2024-03-02T04:51:20;6.50;90.30
18365;DHT22;9309;52.126;11.616;2024-03-02T04:53:46;6.50;90.20
18365;DHT22;9309;52.126;11.616;2024-03-02T04:56:14;6.50;90.00
18365;DHT22;9309;52.126;11.616;2024-03-02T04:59:05;6.50;90.00
18365;DHT22;9309;52.126;11.616;2024-03-02T05:01:32;6.60;89.40
18365;DHT22;9309;52.126;11.616;2024-03-02T05:03:59;6.60;89.30
18365;DHT22;9309;52.126;11.616;2024-03-02T05:06:25;6.60;89.50
18365;DHT22;9309;52.126;11.616;2024-03-02T05:08:52;6.60;89.30
18365;DHT22;9309;52.126;11.616;2024-03-02T05:11:20;6.60;89.30
18365;DHT22;9309;52.126;11.616;2024-03-02T05:14:03;6.50;89.00
18365;DHT22;9309;52.126;11.616;2024-03-02T05:16:32;6.50;89.40
18365;DHT22;9309;52.126;11.616;2024-03-02T05:18:59;6.50;89.50
18365;DHT22;9309;52.126;11.616;2024-03-02T05:21:26;6.60;89.50
18365;DHT22;9309;52.126;11.616;2024-03-02T05:23:52;6.60;89.30
18365;DHT22;9309;52.126;11.616;2024-03-02T05:26:20;6.60;89.10
18365;DHT22;9309;52.126;11.616;2024-03-02T05:28:47;6.70;88.90
18365;DHT22;9309;52.126;11.616;2024-03-02T05:31:15;6.70;89.20
18365;DHT22;9309;52.126;11.616;2024-03-02T05:33:42;6.70;89.20
18365;DHT22;9309;52.126;11.616;2024-03-02T05:36:09;6.70;89.50
18365;DHT22;9309;52.126;11.616;2024-03-02T05:38:36;6.60;89.50
18365;DHT22;9309;52.126;11.616;2024-03-02T05:41:03;6.60;89.90
18365;DHT22;9309;52.126;11.616;2024-03-02T05:43:31;6.40;90.30
18365;DHT22;9309;52.126;11.616;2024-03-02T05:45:58;6.30;91.30
18365;DHT22;9309;52.126;11.616;2024-03-02T05:48:24;6.30;91.40
18365;DHT22;9309;52.126;11.616;2024-03-02T05:50:51;6.10;92.30
18365;DHT22;9309;52.126;11.616;2024-03-02T05:53:18;6.20;92.30
18365;DHT22;9309;52.126;11.616;2024-03-02T05:55:44;6.30;91.50
18365;DHT22;9309;52.126;11.616;2024-03-02T05:58:11;6.20;91.70
18365;DHT22;9309;52.126;11.616;2024-03-02T06:00:52;6.20;92.00
18365;DHT22;9309;52.126;11.616;2024-03-02T06:03:20;5.90;93.60
18365;DHT22;9309;52.126;11.616;2024-03-02T06:05:46;5.70;94.70
18365;DHT22;9309;52.126;11.616;2024-03-02T06:08:14;5.60;95.40
18365;DHT22;9309;52.126;11.616;2024-03-02T06:10:41;5.60;96.00
18365;DHT22;9309;52.126;11.616;2024-03-02T06:13:07;5.90;95.50
18365;DHT22;9309;52.126;11.616;2024-03-02T06:15:34;5.70;95.40
18365;DHT22;9309;52.126;11.616;2024-03-02T06:18:03;5.80;95.70
18365;DHT22;9309;52.126;11.616;2024-03-02T06:20:32;6.00;95.20
18365;DHT22;9309;52.126;11.616;2024-03-02T06:22:58;6.30;93.80
18365;DHT22;9309;52.126;11.616;2024-03-02T06:25:25;6.30;93.30
18365;DHT22;9309;52.126;11.616;2024-03-02T06:27:51;6.10;93.00
18365;DHT22;9309;52.126;11.616;2024-03-02T06:30:18;5.80;94.70
18365;DHT22;9309;52.126;11.616;2024-03-02T06:32:45;5.70;95.60
18365;DHT22;9309;52.126;11.616;2024-03-02T06:35:13;6.00;95.30
18365;DHT22;9309;52.126;11.616;2024-03-02T06:37:40;6.00;94.90
18365;DHT22;9309;52.126;11.616;2024-03-02T06:40:07;5.90;95.50
18365;DHT22;9309;52.126;11.616;2024-03-02T06:42:34;6.20;95.90
18365;DHT22;9309;52.126;11.616;2024-03-02T06:45:01;6.50;93.30
18365;DHT22;9309;52.126;11.616;2024-03-02T06:47:28;6.70;92.10
18365;DHT22;9309;52.126;11.616;2024-03-02T06:49:55;6.60;91.30
18365;DHT22;9309;52.126;11.616;2024-03-02T06:52:24;6.60;92.90
18365;DHT22;9309;52.126;11.616;2024-03-02T06:54:50;6.70;92.60
18365;DHT22;9309;52.126;11.616;2024-03-02T06:57:17;6.80;91.20
18365;DHT22;9309;52.126;11.616;2024-03-02T06:59:45;6.90;90.50
18365;DHT22;9309;52.126;11.616;2024-03-02T07:02:12;7.00;90.20
18365;DHT22;9309;52.126;11.616;2024-03-02T07:04:38;7.10;89.30
18365;DHT22;9309;52.126;11.616;2024-03-02T07:07:05;6.90;89.70
18365;DHT22;9309;52.126;11.616;2024-03-02T07:09:33;6.90;89.80
18365;DHT22;9309;52.126;11.616;2024-03-02T07:12:01;6.70;92.00
18365;DHT22;9309;52.126;11.616;2024-03-02T07:14:27;6.90;91.70
18365;DHT22;9309;52.126;11.616;2024-03-02T07:17:20;7.00;91.30
18365;DHT22;9309;52.126;11.616;2024-03-02T07:19:47;6.90;90.60
18365;DHT22;9309;52.126;11.616;2024-03-02T07:22:14;7.10;90.40
18365;DHT22;9309;52.126;11.616;2024-03-02T07:24:42;7.30;89.20
18365;DHT22;9309;52.126;11.616;2024-03-02T07:27:09;7.50;88.70
18365;DHT22;9309;52.126;11.616;2024-03-02T07:29:36;7.50;89.10
18365;DHT22;9309;52.126;11.616;2024-03-02T07:32:03;7.10;90.20
18365;DHT22;9309;52.126;11.616;2024-03-02T07:34:30;6.70;92.30
18365;DHT22;9309;52.126;11.616;2024-03-02T07:36:57;6.60;93.30
18365;DHT22;9309;52.126;11.616;2024-03-02T07:39:23;6.60;94.10
18365;DHT22;9309;52.126;11.616;2024-03-02T07:41:52;6.70;94.20
18365;DHT22;9309;52.126;11.616;2024-03-02T07:44:18;6.70;93.80
18365;DHT22;9309;52.126;11.616;2024-03-02T07:46:46;6.70;93.50
18365;DHT22;9309;52.126;11.616;2024-03-02T07:49:12;6.80;94.30
18365;DHT22;9309;52.126;11.616;2024-03-02T07:51:39;6.90;94.70
18365;DHT22;9309;52.126;11.616;2024-03-02T07:54:06;6.90;94.20
18365;DHT22;9309;52.126;11.616;2024-03-02T07:56:33;7.00;94.40
18365;DHT22;9309;52.126;11.616;2024-03-02T07:59:01;7.10;93.80
18365;DHT22;9309;52.126;11.616;2024-03-02T08:01:28;7.10;93.80
18365;DHT22;9309;52.126;11.616;2024-03-02T08:03:55;7.20;93.70
18365;DHT22;9309;52.126;11.616;2024-03-02T08:06:23;7.30;94.10
18365;DHT22;9309;52.126;11.616;2024-03-02T08:08:53;7.60;92.80
18365;DHT22;9309;52.126;11.616;2024-03-02T08:11:19;7.60;92.00
18365;DHT22;9309;52.126;11.616;2024-03-02T08:13:46;7.70;92.30
18365;DHT22;9309;52.126;11.616;2024-03-02T08:16:14;7.70;90.80
18365;DHT22;9309;52.126;11.616;2024-03-02T08:18:41;7.60;91.00
18365;DHT22;9309;52.126;11.616;2024-03-02T08:21:08;7.80;91.20
18365;DHT22;9309;52.126;11.616;2024-03-02T08:23:35;8.00;90.40
18365;DHT22;9309;52.126;11.616;2024-03-02T08:26:02;7.90;89.40
18365;DHT22;9309;52.126;11.616;2024-03-02T08:28:28;7.90;89.90
18365;DHT22;9309;52.126;11.616;2024-03-02T08:30:55;7.90;90.60
18365;DHT22;9309;52.126;11.616;2024-03-02T08:33:23;7.90;89.90
18365;DHT22;9309;52.126;11.616;2024-03-02T08:35:50;8.00;89.70
18365;DHT22;9309;52.126;11.616;2024-03-02T08:38:17;8.50;88.60
18365;DHT22;9309;52.126;11.616;2024-03-02T08:40:42;8.80;86.90
18365;DHT22;9309;52.126;11.616;2024-03-02T08:43:10;8.80;86.40
18365;DHT22;9309;52.126;11.616;2024-03-02T08:45:36;8.50;87.40
18365;DHT22;9309;52.126;11.616;2024-03-02T08:48:05;8.60;88.30
18365;DHT22;9309;52.126;11.616;2024-03-02T08:50:33;8.50;87.50
18365;DHT22;9309;52.126;11.616;2024-03-02T08:53:00;8.50;87.40
18365;DHT22;9309;52.126;11.616;2024-03-02T08:55:26;8.90;86.60
18365;DHT22;9309;52.126;11.616;2024-03-02T08:57:53;9.00;86.60
18365;DHT22;9309;52.126;11.616;2024-03-02T09:00:20;9.10;86.00
18365;DHT22;9309;52.126;11.616;2024-03-02T09:02:46;9.20;86.10
18365;DHT22;9309;52.126;11.616;2024-03-02T09:05:13;9.50;84.70
18365;DHT22;9309;52.126;11.616;2024-03-02T09:07:41;9.50;83.20
18365;DHT22;9309;52.126;11.616;2024-03-02T09:10:08;9.30;84.10
18365;DHT22;9309;52.126;11.616;2024-03-02T09:12:34;9.20;85.30
18365;DHT22;9309;52.126;11.616;2024-03-02T09:15:01;9.60;84.80
18365;DHT22;9309;52.126;11.616;2024-03-02T09:17:28;9.90;83.50
18365;DHT22;9309;52.126;11.616;2024-03-02T09:19:55;9.90;82.10
18365;DHT22;9309;52.126;11.616;2024-03-02T09:22:21;10.10;80.50
18365;DHT22;9309;52.126;11.616;2024-03-02T09:24:49;9.90;80.90
18365;DHT22;9309;52.126;11.616;2024-03-02T09:27:16;9.70;82.70
18365;DHT22;9309;52.126;11.616;2024-03-02T09:29:42;9.80;83.10
18365;DHT22;9309;52.126;11.616;2024-03-02T09:32:11;10.00;82.50
18365;DHT22;9309;52.126;11.616;2024-03-02T09:34:38;9.90;81.50
18365;DHT22;9309;52.126;11.616;2024-03-02T09:37:05;9.90;82.10
18365;DHT22;9309;52.126;11.616;2024-03-02T09:39:32;9.90;82.40
18365;DHT22;9309;52.126;11.616;2024-03-02T09:42:00;10.30;81.80
18365;DHT22;9309;52.126;11.616;2024-03-02T09:44:26;10.30;81.10
18365;DHT22;9309;52.126;11.616;2024-03-02T09:46:53;10.10;81.40
18365;DHT22;9309;52.126;11.616;2024-03-02T09:49:19;10.10;81.50
18365;DHT22;9309;52.126;11.616;2024-03-02T09:51:46;10.20;81.50
18365;DHT22;9309;52.126;11.616;2024-03-02T09:54:13;10.50;82.20
18365;DHT22;9309;52.126;11.616;2024-03-02T09:56:39;11.10;78.70
18365;DHT22;9309;52.126;11.616;2024-03-02T09:59:07;11.80;77.20
18365;DHT22;9309;52.126;11.616;2024-03-02T10:01:34;12.60;73.30
18365;DHT22;9309;52.126;11.616;2024-03-02T10:04:01;13.00;70.50
18365;DHT22;9309;52.126;11.616;2024-03-02T10:06:28;14.00;67.30
18365;DHT22;9309;52.126;11.616;2024-03-02T10:08:55;14.70;63.60
18365;DHT22;9309;52.126;11.616;2024-03-02T10:11:25;14.80;64.20
18365;DHT22;9309;52.126;11.616;2024-03-02T10:13:57;15.10;62.10
18365;DHT22;9309;52.126;11.616;2024-03-02T10:16:31;15.00;61.80
18365;DHT22;9309;52.126;11.616;2024-03-02T10:18:57;14.90;62.10
18365;DHT22;9309;52.126;11.616;2024-03-02T10:21:24;14.70;63.30
18365;DHT22;9309;52.126;11.616;2024-03-02T10:23:50;14.40;64.40
18365;DHT22;9309;52.126;11.616;2024-03-02T10:26:17;14.80;63.70
18365;DHT22;9309;52.126;11.616;2024-03-02T10:28:45;15.80;60.00
18365;DHT22;9309;52.126;11.616;2024-03-02T10:31:12;16.70;57.60
18365;DHT22;9309;52.126;11.616;2024-03-02T10:33:40;16.80;57.00
18365;DHT22;9309;52.126;11.616;2024-03-02T10:36:07;16.20;59.10
18365;DHT22;9309;52.126;11.616;2024-03-02T10:38:33;15.90;58.80
18365;DHT22;9309;52.126;11.616;2024-03-02T10:41:00;15.50;61.40
18365;DHT22;9309;52.126;11.616;2024-03-02T10:43:29;15.40;61.50
18365;DHT22;9309;52.126;11.616;2024-03-02T10:45:55;15.70;60.80
18365;DHT22;9309;52.126;11.616;2024-03-02T10:48:24;16.00;58.60
18365;DHT22;9309;52.126;11.616;2024-03-02T10:50:53;15.10;62.00
18365;DHT22;9309;52.126;11.616;2024-03-02T10:53:19;16.30;58.90
18365;DHT22;9309;52.126;11.616;2024-03-02T10:55:46;17.90;54.20
18365;DHT22;9309;52.126;11.616;2024-03-02T10:58:16;18.20;52.00
18365;DHT22;9309;52.126;11.616;2024-03-02T11:00:43;17.60;53.30
18365;DHT22;9309;52.126;11.616;2024-03-02T11:03:11;16.60;55.60
18365;DHT22;9309;52.126;11.616;2024-03-02T11:05:39;16.10;57.60
18365;DHT22;9309;52.126;11.616;2024-03-02T11:08:08;15.70;59.90
18365;DHT22;9309;52.126;11.616;2024-03-02T11:10:40;15.70;59.90
18365;DHT22;9309;52.126;11.616;2024-03-02T11:13:08;16.80;57.10
18365;DHT22;9309;52.126;11.616;2024-03-02T11:15:35;18.40;52.50
18365;DHT22;9309;52.126;11.616;2024-03-02T11:18:04;18.60;51.80
18365;DHT22;9309;52.126;11.616;2024-03-02T11:20:35;18.70;51.30
18365;DHT22;9309;52.126;11.616;2024-03-02T11:23:05;18.90;50.70
18365;DHT22;9309;52.126;11.616;2024-03-02T11:25:38;19.00;50.40
18365;DHT22;9309;52.126;11.616;2024-03-02T11:28:06;18.70;50.80
18365;DHT22;9309;52.126;11.616;2024-03-02T11:30:53;19.00;49.80
18365;DHT22;9309;52.126;11.616;2024-03-02T11:33:26;16.60;55.50
18365;DHT22;9309;52.126;11.616;2024-03-02T11:35:57;15.50;58.90
18365;DHT22;9309;52.126;11.616;2024-03-02T11:38:29;16.20;58.30
18365;DHT22;9309;52.126;11.616;2024-03-02T11:40:59;16.60;56.50
18365;DHT22;9309;52.126;11.616;2024-03-02T11:43:28;16.80;57.00
18365;DHT22;9309;52.126;11.616;2024-03-02T11:45:58;17.20;55.00
18365;DHT22;9309;52.126;11.616;2024-03-02T11:48:25;17.40;53.60
18365;DHT22;9309;52.126;11.616;2024-03-02T11:50:52;15.70;57.70
18365;DHT22;9309;52.126;11.616;2024-03-02T11:53:20;15.90;57.30
18365;DHT22;9309;52.126;11.616;2024-03-02T11:55:47;16.60;57.60
18365;DHT22;9309;52.126;11.616;2024-03-02T11:58:16;18.20;53.40
18365;DHT22;9309;52.126;11.616;2024-03-02T12:00:45;19.60;48.50
18365;DHT22;9309;52.126;11.616;2024-03-02T12:03:13;18.60;50.20
18365;DHT22;9309;52.126;11.616;2024-03-02T12:05:40;19.30;48.20
18365;DHT22;9309;52.126;11.616;2024-03-02T12:08:07;18.00;51.90
18365;DHT22;9309;52.126;11.616;2024-03-02T12:10:35;18.00;51.50
18365;DHT22;9309;52.126;11.616;2024-03-02T12:13:03;17.90;52.10
18365;DHT22;9309;52.126;11.616;2024-03-02T12:15:32;17.80;52.60
18365;DHT22;9309;52.126;11.616;2024-03-02T12:18:00;18.30;51.30
18365;DHT22;9309;52.126;11.616;2024-03-02T12:20:28;18.10;52.00
18365;DHT22;9309;52.126;11.616;2024-03-02T12:22:57;19.50;48.40
18365;DHT22;9309;52.126;11.616;2024-03-02T12:25:24;20.20;47.50
18365;DHT22;9309;52.126;11.616;2024-03-02T12:27:54;20.20;47.00
18365;DHT22;9309;52.126;11.616;2024-03-02T12:30:22;21.00;45.70
18365;DHT22;9309;52.126;11.616;2024-03-02T12:32:51;21.40;43.30
18365;DHT22;9309;52.126;11.616;2024-03-02T12:35:18;20.50;45.20
18365;DHT22;9309;52.126;11.616;2024-03-02T12:37:47;20.60;45.00
18365;DHT22;9309;52.126;11.616;2024-03-02T12:40:15;21.30;45.30
18365;DHT22;9309;52.126;11.616;2024-03-02T12:42:44;22.30;42.20
18365;DHT22;9309;52.126;11.616;2024-03-02T12:45:11;20.80;44.70
18365;DHT22;9309;52.126;11.616;2024-03-02T12:47:40;22.00;42.80
18365;DHT22;9309;52.126;11.616;2024-03-02T12:50:09;21.50;42.10
18365;DHT22;9309;52.126;11.616;2024-03-02T12:52:36;20.40;44.30
18365;DHT22;9309;52.126;11.616;2024-03-02T12:55:05;20.00;44.60
18365;DHT22;9309;52.126;11.616;2024-03-02T12:57:33;21.40;43.20
18365;DHT22;9309;52.126;11.616;2024-03-02T13:00:00;20.20;45.00
18365;DHT22;9309;52.126;11.616;2024-03-02T13:02:31;19.60;46.10
18365;DHT22;9309;52.126;11.616;2024-03-02T13:04:58;20.00;45.60
18365;DHT22;9309;52.126;11.616;2024-03-02T13:07:26;19.60;46.60
18365;DHT22;9309;52.126;11.616;2024-03-02T13:09:54;21.50;42.80
18365;DHT22;9309;52.126;11.616;2024-03-02T13:12:22;20.90;43.70
18365;DHT22;9309;52.126;11.616;2024-03-02T13:14:49;21.40;42.50
18365;DHT22;9309;52.126;11.616;2024-03-02T13:17:17;21.60;42.40
18365;DHT22;9309;52.126;11.616;2024-03-02T13:19:51;22.20;41.10
18365;DHT22;9309;52.126;11.616;2024-03-02T13:22:19;25.00;37.20
18365;DHT22;9309;52.126;11.616;2024-03-02T13:24:47;26.30;34.80
18365;DHT22;9309;52.126;11.616;2024-03-02T13:27:13;25.90;34.10
18365;DHT22;9309;52.126;11.616;2024-03-02T13:29:41;24.30;37.20
18365;DHT22;9309;52.126;11.616;2024-03-02T13:32:08;23.30;38.70
18365;DHT22;9309;52.126;11.616;2024-03-02T13:34:36;23.00;38.80
18365;DHT22;9309;52.126;11.616;2024-03-02T13:37:03;22.30;39.60
18365;DHT22;9309;52.126;11.616;2024-03-02T13:39:31;21.40;41.10
18365;DHT22;9309;52.126;11.616;2024-03-02T13:41:59;21.80;40.80
18365;DHT22;9309;52.126;11.616;2024-03-02T13:44:29;21.90;40.40
18365;DHT22;9309;52.126;11.616;2024-03-02T13:46:56;20.30;42.70
18365;DHT22;9309;52.126;11.616;2024-03-02T13:49:23;20.30;44.50
18365;DHT22;9309;52.126;11.616;2024-03-02T13:51:54;23.00;39.00
18365;DHT22;9309;52.126;11.616;2024-03-02T13:57:19;20.90;42.40
18365;DHT22;9309;52.126;11.616;2024-03-02T13:59:47;18.90;45.70
18365;DHT22;9309;52.126;11.616;2024-03-02T14:02:13;18.90;46.50
18365;DHT22;9309;52.126;11.616;2024-03-02T14:04:41;19.90;45.10
18365;DHT22;9309;52.126;11.616;2024-03-02T14:07:07;19.50;44.80
18365;DHT22;9309;52.126;11.616;2024-03-02T14:09:36;19.40;45.00
18365;DHT22;9309;52.126;11.616;2024-03-02T14:12:04;18.80;46.00
18365;DHT22;9309;52.126;11.616;2024-03-02T14:14:32;18.90;45.80
18365;DHT22;9309;52.126;11.616;2024-03-02T14:16:59;20.10;43.00
18365;DHT22;9309;52.126;11.616;2024-03-02T14:19:29;19.40;43.30
18365;DHT22;9309;52.126;11.616;2024-03-02T14:21:56;19.20;44.80
18365;DHT22;9309;52.126;11.616;2024-03-02T14:24:23;18.80;45.20
18365;DHT22;9309;52.126;11.616;2024-03-02T14:26:51;20.40;42.10
18365;DHT22;9309;52.126;11.616;2024-03-02T14:29:18;20.60;41.90
18365;DHT22;9309;52.126;11.616;2024-03-02T14:31:46;20.10;42.40
18365;DHT22;9309;52.126;11.616;2024-03-02T14:34:13;19.00;45.00
18365;DHT22;9309;52.126;11.616;2024-03-02T14:36:40;17.60;48.80
18365;DHT22;9309;52.126;11.616;2024-03-02T14:39:09;17.50;49.80
18365;DHT22;9309;52.126;11.616;2024-03-02T14:41:35;17.40;50.00
18365;DHT22;9309;52.126;11.616;2024-03-02T14:44:02;16.60;51.80
18365;DHT22;9309;52.126;11.616;2024-03-02T14:46:29;16.10;53.40
18365;DHT22;9309;52.126;11.616;2024-03-02T14:48:57;16.20;53.40
18365;DHT22;9309;52.126;11.616;2024-03-02T14:51:25;16.80;52.50
18365;DHT22;9309;52.126;11.616;2024-03-02T14:53:51;17.70;49.80
18365;DHT22;9309;52.126;11.616;2024-03-02T14:56:18;17.60;49.80
18365;DHT22;9309;52.126;11.616;2024-03-02T14:58:45;16.60;52.50
18365;DHT22;9309;52.126;11.616;2024-03-02T15:01:12;16.80;52.50
18365;DHT22;9309;52.126;11.616;2024-03-02T15:03:40;16.40;53.20
18365;DHT22;9309;52.126;11.616;2024-03-02T15:06:08;16.00;54.40
18365;DHT22;9309;52.126;11.616;2024-03-02T15:08:35;15.60;55.10
18365;DHT22;9309;52.126;11.616;2024-03-02T15:11:02;15.70;55.10
18365;DHT22;9309;52.126;11.616;2024-03-02T15:13:29;15.70;55.50
18365;DHT22;9309;52.126;11.616;2024-03-02T15:15:56;16.30;52.90
18365;DHT22;9309;52.126;11.616;2024-03-02T15:18:23;16.40;53.10
18365;DHT22;9309;52.126;11.616;2024-03-02T15:20:50;15.90;53.70
18365;DHT22;9309;52.126;11.616;2024-03-02T15:23:18;15.50;55.20
18365;DHT22;9309;52.126;11.616;2024-03-02T15:25:45;14.80;57.20
18365;DHT22;9309;52.126;11.616;2024-03-02T15:28:12;14.40;57.30
18365;DHT22;9309;52.126;11.616;2024-03-02T15:30:38;14.20;58.70
18365;DHT22;9309;52.126;11.616;2024-03-02T15:33:05;13.90;59.00
18365;DHT22;9309;52.126;11.616;2024-03-02T15:35:31;13.80;60.00
18365;DHT22;9309;52.126;11.616;2024-03-02T15:37:58;13.80;60.30
18365;DHT22;9309;52.126;11.616;2024-03-02T15:40:26;13.70;60.60
18365;DHT22;9309;52.126;11.616;2024-03-02T15:42:53;13.70;60.90
18365;DHT22;9309;52.126;11.616;2024-03-02T15:45:20;13.70;60.40